Time;durP1;ratioP1;P1;durP2;ratioP2;P2;SDS_P1;SDS_P2;PMS_P1;PMS_P2;Temp;Humidity;BMP_temperature;BMP_pressure;BME280_temperature;BME280_humidity;BME280_pressure;Samples;Min_cycle;Max_cycle;Signal;HPM_P1;HPM_P2
2021/04/07 00:00:32;;;;;;;11.05;7.30;;;4.90;61.80;;;;;;1485515;39;20035;-59
2021/04/07 00:01:53;;;;;;;12.98;7.80;;;4.90;61.80;;;;;;1487691;39;20024;-59
2021/04/07 00:03:14;;;;;;;10.40;7.53;;;4.90;61.80;;;;;;1487294;40;20118;-59
2021/04/07 00:04:35;;;;;;;10.38;7.15;;;4.90;61.70;;;;;;1484943;39;20055;-59
2021/04/07 00:05:56;;;;;;;9.13;7.63;;;4.90;61.70;;;;;;1487242;39;20064;-59
2021/04/07 00:07:17;;;;;;;10.05;7.03;;;4.90;61.80;;;;;;1483833;40;20420;-59
2021/04/07 00:08:38;;;;;;;8.55;7.38;;;4.90;61.80;;;;;;1487479;39;20135;-59
2021/04/07 00:10:00;;;;;;;9.88;7.68;;;4.90;61.90;;;;;;1486563;39;20345;-59
2021/04/07 00:11:21;;;;;;;7.72;6.78;;;4.90;61.80;;;;;;1484746;39;20086;-59
2021/04/07 00:12:43;;;;;;;9.68;6.65;;;4.90;61.80;;;;;;1486646;39;20036;-59
2021/04/07 00:14:07;;;;;;;8.68;6.88;;;4.90;61.90;;;;;;1485356;39;20025;-59
2021/04/07 00:15:28;;;;;;;8.80;6.90;;;4.90;61.90;;;;;;1483808;39;20024;-59
2021/04/07 00:16:50;;;;;;;8.30;6.88;;;4.90;61.80;;;;;;1488177;39;20028;-60
2021/04/07 00:18:11;;;;;;;10.10;6.65;;;4.80;61.90;;;;;;1484189;39;20036;-59
2021/04/07 00:19:32;;;;;;;9.73;6.68;;;4.80;62.00;;;;;;1485589;39;20238;-59
2021/04/07 00:20:53;;;;;;;8.18;6.25;;;4.90;62.10;;;;;;1485697;39;20639;-59
2021/04/07 00:22:14;;;;;;;11.45;6.22;;;4.90;62.20;;;;;;1484959;40;20017;-59
2021/04/07 00:23:35;;;;;;;8.90;6.47;;;4.90;62.20;;;;;;1482128;40;20378;-59
2021/04/07 00:24:56;;;;;;;7.60;6.25;;;4.90;62.10;;;;;;1484645;39;20036;-59
2021/04/07 00:26:17;;;;;;;7.07;6.00;;;4.90;62.20;;;;;;1482928;39;20029;-59
2021/04/07 00:27:40;;;;;;;8.10;5.53;;;4.80;62.10;;;;;;1486976;39;20039;-59
2021/04/07 00:29:02;;;;;;;8.10;5.43;;;4.90;62.10;;;;;;1486878;39;20024;-58
2021/04/07 00:30:26;;;;;;;8.95;5.97;;;4.90;62.10;;;;;;1486544;39;20027;-58
2021/04/07 00:31:47;;;;;;;7.30;6.07;;;4.80;62.10;;;;;;1487605;39;20359;-58
2021/04/07 00:33:08;;;;;;;6.82;5.93;;;4.90;62.20;;;;;;1487608;39;20619;-58
2021/04/07 00:34:29;;;;;;;13.45;5.55;;;4.80;62.10;;;;;;1486067;39;20025;-59
2021/04/07 00:35:50;;;;;;;7.85;5.88;;;4.90;62.20;;;;;;1486245;39;20032;-59
2021/04/07 00:37:11;;;;;;;8.63;5.88;;;4.80;62.10;;;;;;1485038;39;20076;-59
2021/04/07 00:38:32;;;;;;;7.43;5.78;;;4.80;62.00;;;;;;1484436;39;20467;-59
2021/04/07 00:39:53;;;;;;;6.72;5.88;;;4.80;62.10;;;;;;1486126;39;20032;-60
2021/04/07 00:41:14;;;;;;;6.85;5.22;;;4.80;62.10;;;;;;1481968;40;20027;-60
2021/04/07 00:42:36;;;;;;;9.13;5.75;;;4.80;62.00;;;;;;1482649;39;20040;-59
2021/04/07 00:44:03;;;;;;;6.78;5.88;;;4.80;62.10;;;;;;1486045;39;20021;-59
2021/04/07 00:45:24;;;;;;;6.43;5.57;;;4.90;62.20;;;;;;1484626;39;20036;-59
2021/04/07 00:46:45;;;;;;;5.95;5.35;;;4.90;62.10;;;;;;1483217;40;20105;-59
2021/04/07 00:48:06;;;;;;;7.70;5.45;;;4.80;62.10;;;;;;1484241;40;20139;-59
2021/04/07 00:49:27;;;;;;;7.47;5.57;;;4.90;62.20;;;;;;1484763;39;20021;-59
2021/04/07 00:50:48;;;;;;;7.18;5.40;;;4.90;62.30;;;;;;1485954;39;20025;-60
2021/04/07 00:52:09;;;;;;;5.88;5.10;;;4.80;62.20;;;;;;1485878;39;20028;-60
2021/04/07 00:53:30;;;;;;;8.38;5.60;;;4.90;62.40;;;;;;1484167;39;20341;-60
2021/04/07 00:54:53;;;;;;;7.07;5.22;;;4.90;62.30;;;;;;1481588;40;20037;-59
2021/04/07 00:56:14;;;;;;;8.68;5.55;;;4.90;62.30;;;;;;1483068;40;20137;-59
2021/04/07 00:57:35;;;;;;;7.22;5.22;;;4.90;62.20;;;;;;1486162;39;20523;-59
2021/04/07 00:58:56;;;;;;;8.25;4.90;;;4.90;62.20;;;;;;1486193;39;20381;-59
2021/04/07 01:00:18;;;;;;;6.25;4.70;;;4.90;62.10;;;;;;1486761;40;20028;-59
2021/04/07 01:01:40;;;;;;;5.72;4.97;;;4.90;62.20;;;;;;1484839;39;20422;-59
2021/04/07 01:03:02;;;;;;;6.47;4.25;;;4.90;62.20;;;;;;1482411;40;20392;-60
2021/04/07 01:04:25;;;;;;;6.03;3.63;;;4.90;62.40;;;;;;1483722;39;20040;-60
2021/04/07 01:05:46;;;;;;;5.43;3.80;;;4.90;62.20;;;;;;1486075;39;20034;-60
2021/04/07 01:07:07;;;;;;;3.95;3.55;;;4.90;62.20;;;;;;1486479;39;20032;-61
2021/04/07 01:08:28;;;;;;;3.60;3.30;;;4.90;62.30;;;;;;1486746;39;20054;-58
2021/04/07 01:09:49;;;;;;;5.20;3.58;;;4.90;62.20;;;;;;1485112;39;20031;-59
2021/04/07 01:11:10;;;;;;;4.97;3.83;;;5.00;62.80;;;;;;1487151;39;20455;-59
2021/04/07 01:12:31;;;;;;;5.90;3.65;;;5.00;62.10;;;;;;1487926;39;20350;-58
2021/04/07 01:13:52;;;;;;;4.32;3.20;;;4.90;62.10;;;;;;1486008;39;20101;-59
2021/04/07 01:15:15;;;;;;;5.15;3.55;;;4.90;62.10;;;;;;1486630;39;20376;-59
2021/04/07 01:16:36;;;;;;;5.10;3.55;;;5.00;62.30;;;;;;1487392;39;20095;-59
2021/04/07 01:17:58;;;;;;;4.40;3.60;;;4.90;62.20;;;;;;1485059;39;20672;-59
2021/04/07 01:19:24;;;;;;;4.28;3.60;;;4.90;62.10;;;;;;1486173;39;20029;-59
2021/04/07 01:20:45;;;;;;;5.82;3.20;;;4.90;62.20;;;;;;1484220;39;20043;-59
2021/04/07 01:22:06;;;;;;;6.15;4.28;;;4.90;62.10;;;;;;1484756;39;20043;-59
2021/04/07 01:23:28;;;;;;;4.35;3.90;;;4.90;62.00;;;;;;1483434;39;20377;-59
2021/04/07 01:24:49;;;;;;;4.90;4.03;;;4.90;62.00;;;;;;1487147;39;20059;-59
2021/04/07 01:26:10;;;;;;;4.80;3.58;;;4.90;62.00;;;;;;1483569;39;20074;-60
2021/04/07 01:27:31;;;;;;;7.85;3.97;;;4.90;62.00;;;;;;1484223;39;20363;-59
2021/04/07 01:28:52;;;;;;;7.35;3.83;;;4.90;62.00;;;;;;1486992;39;20032;-59
2021/04/07 01:30:17;;;;;;;4.25;3.90;;;4.90;62.10;;;;;;1486388;39;20039;-59
2021/04/07 01:31:49;;;;;;;5.03;3.88;;;4.90;62.20;;;;;;1484474;39;20043;-59
2021/04/07 01:33:21;;;;;;;4.28;3.53;;;4.90;62.80;;;;;;1486380;39;20076;-59
2021/04/07 01:34:44;;;;;;;3.40;3.10;;;4.90;62.00;;;;;;1487253;39;20038;-59
2021/04/07 01:36:05;;;;;;;5.22;3.42;;;4.90;61.90;;;;;;1484450;39;20031;-59
2021/04/07 01:37:26;;;;;;;3.60;3.20;;;4.90;61.90;;;;;;1484391;39;20416;-59
2021/04/07 01:38:47;;;;;;;4.05;3.30;;;4.90;61.90;;;;;;1486584;39;20101;-59
2021/04/07 01:40:11;;;;;;;4.57;3.20;;;4.90;61.90;;;;;;1487512;39;20292;-59
2021/04/07 01:41:32;;;;;;;7.40;3.63;;;4.90;61.90;;;;;;1480091;40;20086;-59
2021/04/07 01:42:54;;;;;;;3.13;2.83;;;4.90;62.00;;;;;;1483765;39;20039;-59
2021/04/07 01:44:17;;;;;;;4.82;3.58;;;4.90;62.20;;;;;;1486173;40;20028;-59
2021/04/07 01:45:38;;;;;;;4.82;3.90;;;4.90;62.20;;;;;;1487247;39;20028;-59
2021/04/07 01:47:00;;;;;;;3.60;3.30;;;4.90;62.00;;;;;;1486771;39;20028;-59
2021/04/07 01:48:22;;;;;;;5.55;4.05;;;4.80;62.00;;;;;;1486661;39;20028;-59
2021/04/07 01:49:43;;;;;;;5.20;4.05;;;4.90;62.20;;;;;;1487366;39;20056;-59
2021/04/07 01:51:05;;;;;;;7.82;4.50;;;4.90;62.30;;;;;;1484678;39;20047;-59
2021/04/07 01:52:27;;;;;;;7.43;3.92;;;4.90;62.20;;;;;;1483720;39;20062;-59
2021/04/07 01:53:48;;;;;;;5.45;4.28;;;4.90;62.20;;;;;;1487484;39;20024;-59
2021/04/07 01:55:09;;;;;;;8.10;4.22;;;4.90;62.20;;;;;;1487057;39;20032;-59
2021/04/07 01:56:31;;;;;;;6.95;3.97;;;4.90;62.20;;;;;;1486419;39;20033;-59
2021/04/07 01:57:52;;;;;;;4.97;4.43;;;4.90;62.20;;;;;;1486424;39;20338;-58
2021/04/07 01:59:14;;;;;;;5.85;4.80;;;4.90;62.30;;;;;;1485575;39;20031;-59
2021/04/07 02:00:35;;;;;;;6.03;5.40;;;4.90;62.60;;;;;;1486934;39;20504;-59
2021/04/07 02:01:57;;;;;;;6.70;5.40;;;4.90;62.60;;;;;;1486707;39;20108;-59
2021/04/07 02:03:17;;;;;;;5.57;5.07;;;4.90;62.50;;;;;;1483508;40;20122;-59
2021/04/07 02:04:40;;;;;;;8.60;5.80;;;4.90;62.60;;;;;;1483936;39;20035;-59
2021/04/07 02:06:00;;;;;;;7.35;5.35;;;4.90;62.70;;;;;;1483526;39;20578;-59
2021/04/07 02:07:21;;;;;;;7.43;5.70;;;4.90;62.70;;;;;;1483600;39;20093;-59
2021/04/07 02:08:42;;;;;;;5.55;5.00;;;4.90;62.60;;;;;;1487367;39;20024;-59
2021/04/07 02:10:06;;;;;;;6.25;5.50;;;4.90;62.70;;;;;;1485325;39;20031;-60
2021/04/07 02:11:27;;;;;;;7.03;6.32;;;4.90;62.80;;;;;;1482859;39;20129;-59
2021/04/07 02:12:56;;;;;;;6.97;5.88;;;4.90;62.70;;;;;;1481982;40;20445;-59
2021/04/07 02:14:20;;;;;;;7.22;6.32;;;4.90;63.00;;;;;;1483314;40;20025;-59
2021/04/07 02:15:41;;;;;;;6.22;5.63;;;4.90;62.90;;;;;;1484299;39;20436;-59
2021/04/07 02:17:04;;;;;;;10.43;6.80;;;4.90;62.90;;;;;;1485940;39;20038;-59
2021/04/07 02:18:25;;;;;;;7.60;6.20;;;4.90;63.10;;;;;;1486256;39;20036;-59
2021/04/07 02:19:46;;;;;;;6.90;5.63;;;4.90;63.10;;;;;;1484689;40;20081;-59
2021/04/07 02:21:08;;;;;;;6.38;5.15;;;4.90;63.10;;;;;;1485635;39;20093;-60
2021/04/07 02:22:29;;;;;;;5.70;5.10;;;4.90;62.90;;;;;;1483882;39;20045;-59
2021/04/07 02:23:50;;;;;;;7.68;5.65;;;4.90;62.80;;;;;;1481724;40;20162;-59
2021/04/07 02:25:12;;;;;;;6.50;5.20;;;4.90;62.90;;;;;;1485743;40;20508;-59
2021/04/07 02:26:33;;;;;;;8.15;6.07;;;4.90;62.90;;;;;;1484960;39;20438;-59
2021/04/07 02:27:54;;;;;;;5.82;5.32;;;4.90;62.80;;;;;;1484062;39;20021;-59
2021/04/07 02:29:15;;;;;;;6.32;5.53;;;4.90;62.90;;;;;;1486737;40;20020;-59
2021/04/07 02:30:36;;;;;;;6.45;5.85;;;4.90;63.00;;;;;;1486072;39;20036;-60
2021/04/07 02:31:56;;;;;;;6.18;5.50;;;5.00;62.90;;;;;;1487627;39;20017;-59
2021/04/07 02:33:18;;;;;;;7.65;5.88;;;5.00;62.90;;;;;;1487186;40;20067;-59
2021/04/07 02:34:42;;;;;;;8.57;5.93;;;4.90;62.70;;;;;;1487196;39;20470;-59
2021/04/07 02:36:03;;;;;;;10.70;6.35;;;4.90;62.80;;;;;;1484714;39;20137;-59
2021/04/07 02:37:24;;;;;;;6.10;5.47;;;4.90;62.90;;;;;;1483322;39;20371;-59
2021/04/07 02:38:45;;;;;;;6.07;5.30;;;4.90;62.90;;;;;;1484785;39;20021;-59
2021/04/07 02:40:07;;;;;;;6.22;5.60;;;4.90;63.00;;;;;;1486763;39;20040;-59
2021/04/07 02:41:27;;;;;;;6.88;5.43;;;4.90;62.90;;;;;;1484320;39;20042;-59
2021/04/07 02:42:48;;;;;;;8.65;5.22;;;5.00;63.00;;;;;;1488791;39;20106;-59
2021/04/07 02:44:09;;;;;;;8.27;5.38;;;5.00;63.10;;;;;;1485778;39;20036;-59
2021/04/07 02:45:30;;;;;;;6.45;5.82;;;5.00;63.10;;;;;;1484907;39;20463;-59
2021/04/07 02:46:51;;;;;;;5.57;5.07;;;5.00;63.20;;;;;;1486243;39;20128;-59
2021/04/07 02:48:12;;;;;;;8.43;6.05;;;4.90;63.10;;;;;;1487396;39;20076;-59
2021/04/07 02:49:34;;;;;;;5.30;4.70;;;5.00;63.30;;;;;;1485858;39;20020;-59
2021/04/07 02:50:55;;;;;;;5.75;5.15;;;4.90;63.20;;;;;;1485784;39;20252;-59
2021/04/07 02:52:16;;;;;;;6.05;4.90;;;5.00;63.40;;;;;;1486818;40;20098;-59
2021/04/07 02:53:36;;;;;;;5.43;4.70;;;4.90;63.20;;;;;;1485402;39;20120;-59
2021/04/07 02:54:57;;;;;;;5.63;5.13;;;5.00;63.30;;;;;;1486013;39;20024;-59
2021/04/07 02:56:18;;;;;;;6.22;5.28;;;5.00;63.30;;;;;;1482972;39;20266;-59
2021/04/07 02:57:39;;;;;;;6.22;4.50;;;5.00;63.40;;;;;;1483930;39;20059;-59
2021/04/07 02:59:01;;;;;;;5.85;5.00;;;5.00;63.30;;;;;;1485695;39;20035;-59
2021/04/07 03:00:22;;;;;;;5.55;4.65;;;5.00;63.40;;;;;;1485910;39;20020;-59
2021/04/07 03:01:43;;;;;;;6.30;5.18;;;5.00;63.30;;;;;;1487196;39;20372;-59
2021/04/07 03:03:04;;;;;;;5.78;5.20;;;5.00;63.40;;;;;;1484394;39;20040;-59
2021/04/07 03:04:25;;;;;;;4.97;4.32;;;5.00;63.60;;;;;;1488163;39;20033;-59
2021/04/07 03:05:46;;;;;;;7.28;5.13;;;5.00;63.50;;;;;;1486653;39;20073;-59
2021/04/07 03:07:07;;;;;;;5.75;5.20;;;5.00;63.50;;;;;;1488411;39;20036;-59
2021/04/07 03:08:27;;;;;;;6.10;5.50;;;5.00;63.50;;;;;;1488022;39;20378;-59
2021/04/07 03:09:49;;;;;;;6.35;5.63;;;5.00;63.60;;;;;;1486477;39;20064;-60
2021/04/07 03:11:10;;;;;;;6.20;5.60;;;5.00;63.60;;;;;;1486510;39;20060;-59
2021/04/07 03:12:31;;;;;;;6.85;6.18;;;5.00;63.40;;;;;;1487507;39;20038;-60
2021/04/07 03:13:52;;;;;;;9.25;6.13;;;5.00;63.40;;;;;;1485837;39;20081;-59
2021/04/07 03:15:13;;;;;;;7.75;5.95;;;5.00;63.40;;;;;;1485417;39;20334;-59
2021/04/07 03:16:34;;;;;;;6.25;5.60;;;5.00;63.60;;;;;;1485585;39;20044;-59
2021/04/07 03:17:55;;;;;;;6.15;4.93;;;5.00;63.50;;;;;;1485352;39;20033;-59
2021/04/07 03:19:16;;;;;;;6.50;5.07;;;5.10;63.60;;;;;;1487231;40;20032;-59
2021/04/07 03:20:37;;;;;;;6.22;5.60;;;5.10;63.60;;;;;;1484529;39;20032;-59
2021/04/07 03:21:58;;;;;;;6.15;5.30;;;5.10;63.60;;;;;;1483790;39;20040;-60
2021/04/07 03:23:19;;;;;;;5.60;5.10;;;5.10;63.60;;;;;;1484107;39;20066;-59
2021/04/07 03:24:39;;;;;;;7.72;5.57;;;5.10;63.50;;;;;;1487055;39;20032;-59
2021/04/07 03:26:00;;;;;;;8.65;5.40;;;5.10;63.30;;;;;;1485952;40;20039;-59
2021/04/07 03:27:21;;;;;;;8.45;5.65;;;5.10;63.40;;;;;;1491251;39;20087;-59
2021/04/07 03:28:42;;;;;;;5.75;5.10;;;5.10;63.40;;;;;;1487603;39;20035;-59
2021/04/07 03:30:04;;;;;;;7.45;5.53;;;5.10;63.40;;;;;;1487045;39;20551;-59
2021/04/07 03:31:25;;;;;;;6.70;5.80;;;5.10;63.40;;;;;;1483986;39;20028;-59
2021/04/07 03:32:46;;;;;;;6.72;6.10;;;5.10;63.60;;;;;;1485751;40;20028;-59
2021/04/07 03:34:07;;;;;;;7.55;6.15;;;5.10;63.60;;;;;;1485870;39;20040;-59
2021/04/07 03:35:28;;;;;;;8.50;6.18;;;5.10;63.20;;;;;;1485620;39;20620;-60
2021/04/07 03:36:50;;;;;;;8.10;6.55;;;5.10;63.20;;;;;;1485499;39;20327;-60
2021/04/07 03:38:11;;;;;;;11.68;6.75;;;5.10;63.20;;;;;;1484868;39;20036;-60
2021/04/07 03:39:32;;;;;;;8.10;6.20;;;5.10;63.40;;;;;;1487972;39;20020;-59
2021/04/07 03:40:53;;;;;;;7.25;6.28;;;5.10;64.10;;;;;;1487706;39;20113;-59
2021/04/07 03:42:14;;;;;;;8.13;6.65;;;5.10;63.50;;;;;;1487461;40;20033;-59
2021/04/07 03:43:35;;;;;;;6.55;5.72;;;5.10;63.50;;;;;;1484110;39;20036;-59
2021/04/07 03:44:56;;;;;;;9.13;6.32;;;5.10;63.40;;;;;;1485935;39;20038;-59
2021/04/07 03:46:17;;;;;;;8.75;6.78;;;5.10;63.40;;;;;;1483254;40;20047;-60
2021/04/07 03:47:38;;;;;;;7.30;6.10;;;5.10;63.60;;;;;;1489683;39;20123;-59
2021/04/07 03:48:59;;;;;;;6.95;6.20;;;5.10;63.60;;;;;;1488862;39;20024;-59
2021/04/07 03:50:20;;;;;;;8.02;5.85;;;5.10;63.50;;;;;;1483637;39;20367;-59
2021/04/07 03:51:41;;;;;;;7.85;6.07;;;5.10;63.60;;;;;;1486817;39;20031;-59
2021/04/07 03:53:02;;;;;;;6.28;5.55;;;5.10;64.40;;;;;;1485418;39;20063;-59
2021/04/07 03:54:24;;;;;;;7.22;4.85;;;5.10;63.70;;;;;;1486532;39;20040;-59
2021/04/07 03:55:47;;;;;;;6.75;5.45;;;5.00;63.70;;;;;;1485004;39;20042;-60
2021/04/07 03:57:08;;;;;;;6.00;5.50;;;5.00;64.00;;;;;;1486237;39;20040;-58
2021/04/07 03:58:29;;;;;;;6.38;5.57;;;5.10;63.90;;;;;;1487467;39;20057;-59
2021/04/07 03:59:50;;;;;;;7.90;5.53;;;5.00;64.00;;;;;;1486155;39;20259;-60
2021/04/07 04:01:11;;;;;;;7.50;5.70;;;5.00;63.80;;;;;;1485697;39;20073;-58
2021/04/07 04:02:32;;;;;;;9.48;6.13;;;5.00;63.90;;;;;;1485547;39;20032;-60
2021/04/07 04:03:52;;;;;;;9.15;5.97;;;5.00;63.90;;;;;;1486315;39;20028;-59
2021/04/07 04:05:14;;;;;;;7.78;5.90;;;5.00;63.90;;;;;;1487135;39;20060;-60
2021/04/07 04:06:34;;;;;;;8.77;5.25;;;5.00;64.20;;;;;;1484485;39;20032;-60
2021/04/07 04:07:55;;;;;;;6.22;5.63;;;5.00;64.10;;;;;;1486775;39;20040;-60
2021/04/07 04:09:16;;;;;;;9.02;6.03;;;5.00;64.10;;;;;;1485008;40;20324;-60
2021/04/07 04:10:37;;;;;;;8.80;6.05;;;5.00;64.20;;;;;;1483744;39;20071;-60
2021/04/07 04:11:58;;;;;;;8.20;6.00;;;5.00;64.30;;;;;;1485199;39;20032;-60
2021/04/07 04:13:19;;;;;;;7.82;6.00;;;5.00;64.50;;;;;;1484576;39;20077;-59
2021/04/07 04:14:40;;;;;;;6.50;5.60;;;5.00;64.30;;;;;;1487612;39;20040;-60
2021/04/07 04:16:01;;;;;;;6.50;4.65;;;5.00;64.40;;;;;;1485236;39;20159;-60
2021/04/07 04:17:22;;;;;;;6.80;4.60;;;5.00;64.40;;;;;;1485670;39;20017;-60
2021/04/07 04:18:43;;;;;;;5.70;4.78;;;5.00;64.40;;;;;;1487379;39;20044;-60
2021/04/07 04:20:05;;;;;;;5.72;5.18;;;5.00;64.60;;;;;;1485120;39;20040;-60
2021/04/07 04:21:26;;;;;;;7.13;5.53;;;5.00;64.60;;;;;;1484529;39;20125;-60
2021/04/07 04:22:47;;;;;;;6.25;4.75;;;5.00;64.40;;;;;;1486920;39;20040;-60
2021/04/07 04:24:08;;;;;;;5.90;4.82;;;5.00;64.40;;;;;;1488020;39;20052;-60
2021/04/07 04:25:29;;;;;;;7.95;5.30;;;5.00;64.50;;;;;;1487280;39;20140;-60
2021/04/07 04:26:50;;;;;;;7.68;5.53;;;5.00;64.50;;;;;;1487573;39;20021;-60
2021/04/07 04:28:11;;;;;;;6.43;5.10;;;5.00;64.60;;;;;;1487402;39;20044;-60
2021/04/07 04:29:32;;;;;;;8.85;5.53;;;5.00;64.60;;;;;;1486757;39;20056;-60
2021/04/07 04:30:53;;;;;;;8.68;6.05;;;5.00;64.50;;;;;;1486368;39;20080;-60
2021/04/07 04:32:14;;;;;;;7.20;5.43;;;5.00;64.50;;;;;;1486012;40;20025;-60
2021/04/07 04:33:35;;;;;;;6.93;5.30;;;5.10;64.50;;;;;;1484064;39;20025;-60
2021/04/07 04:34:56;;;;;;;5.85;5.05;;;5.00;64.40;;;;;;1488178;39;20391;-60
2021/04/07 04:36:16;;;;;;;7.25;6.28;;;5.10;64.40;;;;;;1489853;39;20039;-60
2021/04/07 04:37:40;;;;;;;6.80;6.10;;;5.00;64.40;;;;;;1485629;39;20028;-60
2021/04/07 04:39:01;;;;;;;8.77;7.00;;;5.10;64.60;;;;;;1483104;40;20107;-60
2021/04/07 04:40:22;;;;;;;7.82;5.93;;;5.10;64.60;;;;;;1484126;39;20059;-60
2021/04/07 04:41:43;;;;;;;6.65;6.05;;;5.00;64.40;;;;;;1485016;39;20036;-59
2021/04/07 04:43:04;;;;;;;8.40;6.13;;;5.10;64.60;;;;;;1486497;39;20042;-60
2021/04/07 04:44:25;;;;;;;7.18;6.07;;;5.00;64.50;;;;;;1485642;39;20136;-60
2021/04/07 04:45:45;;;;;;;6.45;5.95;;;5.10;64.50;;;;;;1484863;39;20036;-60
2021/04/07 04:47:06;;;;;;;7.03;6.07;;;5.10;64.50;;;;;;1490163;39;20374;-60
2021/04/07 04:48:27;;;;;;;9.57;6.93;;;5.10;64.50;;;;;;1488612;39;20032;-60
2021/04/07 04:49:49;;;;;;;6.88;5.47;;;5.00;64.40;;;;;;1482960;40;20025;-59
2021/04/07 04:51:10;;;;;;;7.00;5.88;;;5.10;64.40;;;;;;1485894;40;20401;-60
2021/04/07 04:52:31;;;;;;;5.53;5.00;;;5.10;64.30;;;;;;1484120;39;20104;-59
2021/04/07 04:53:52;;;;;;;8.32;5.88;;;5.10;64.30;;;;;;1487333;39;20048;-60
2021/04/07 04:55:12;;;;;;;6.95;6.30;;;5.10;64.30;;;;;;1487663;39;20296;-60
2021/04/07 04:56:33;;;;;;;5.88;5.35;;;5.10;64.30;;;;;;1484280;40;20285;-60
2021/04/07 04:57:56;;;;;;;8.23;5.47;;;5.10;64.40;;;;;;1487073;39;20017;-60
2021/04/07 04:59:17;;;;;;;6.25;5.30;;;5.10;64.30;;;;;;1486993;40;20024;-61
2021/04/07 05:00:38;;;;;;;5.43;4.93;;;5.10;64.50;;;;;;1484725;39;20316;-60
2021/04/07 05:01:59;;;;;;;7.43;5.53;;;5.10;64.40;;;;;;1486921;39;20353;-60
2021/04/07 05:03:20;;;;;;;6.65;5.95;;;5.10;64.30;;;;;;1483325;39;20033;-60
2021/04/07 05:04:41;;;;;;;6.63;5.63;;;5.10;64.40;;;;;;1485030;39;20024;-60
2021/04/07 05:06:02;;;;;;;6.00;5.50;;;5.10;64.50;;;;;;1486738;39;20043;-59
2021/04/07 05:07:23;;;;;;;5.90;5.28;;;5.10;64.80;;;;;;1487388;39;20035;-60
2021/04/07 05:08:48;;;;;;;5.60;5.07;;;5.10;64.80;;;;;;1487068;39;20039;-58
2021/04/07 05:10:09;;;;;;;5.57;5.07;;;5.10;64.80;;;;;;1486868;39;20043;-58
2021/04/07 05:11:33;;;;;;;5.75;5.18;;;5.10;64.70;;;;;;1484008;39;20424;-60
2021/04/07 05:12:54;;;;;;;5.40;4.90;;;5.10;64.80;;;;;;1487547;39;20056;-59
2021/04/07 05:14:17;;;;;;;5.25;4.78;;;5.10;64.80;;;;;;1487944;40;20261;-59
2021/04/07 05:15:38;;;;;;;7.47;5.20;;;5.10;64.80;;;;;;1487455;39;20024;-59
2021/04/07 05:16:59;;;;;;;6.60;5.90;;;5.10;64.90;;;;;;1486081;39;20416;-60
2021/04/07 05:18:21;;;;;;;6.13;5.63;;;5.10;65.00;;;;;;1483076;39;20390;-59
2021/04/07 05:19:42;;;;;;;6.32;5.43;;;5.10;65.10;;;;;;1487603;39;20269;-59
2021/04/07 05:21:03;;;;;;;4.82;4.45;;;5.10;65.10;;;;;;1486946;39;20385;-59
2021/04/07 05:22:24;;;;;;;5.55;5.07;;;5.10;65.10;;;;;;1483503;39;20068;-59
2021/04/07 05:23:45;;;;;;;5.32;4.82;;;5.10;65.60;;;;;;1486996;39;20044;-59
2021/04/07 05:25:06;;;;;;;5.10;4.70;;;5.10;65.20;;;;;;1486866;39;20125;-59
2021/04/07 05:26:27;;;;;;;5.80;5.28;;;5.10;65.20;;;;;;1486965;39;20032;-59
2021/04/07 05:27:48;;;;;;;5.47;4.97;;;5.10;65.50;;;;;;1486982;39;20387;-59
2021/04/07 05:29:09;;;;;;;4.72;4.30;;;5.10;65.40;;;;;;1487064;39;20043;-59
2021/04/07 05:31:00;;;;;;;5.68;4.82;;;5.10;65.60;;;;;;1484124;39;20622;-59
2021/04/07 05:32:11;;;;;;;5.78;4.32;;;5.00;65.50;;;;;;1486855;39;20039;-59
2021/04/07 05:33:34;;;;;;;6.32;4.78;;;5.00;65.40;;;;;;1483744;39;20036;-59
2021/04/07 05:34:55;;;;;;;5.80;4.53;;;5.00;65.60;;;;;;1486815;39;20268;-59
2021/04/07 05:36:16;;;;;;;4.60;4.25;;;5.00;65.40;;;;;;1482736;40;20031;-60
2021/04/07 05:37:37;;;;;;;7.43;4.78;;;5.00;65.40;;;;;;1483582;39;20091;-59
2021/04/07 05:38:58;;;;;;;5.95;5.25;;;5.00;65.50;;;;;;1485896;39;20353;-59
2021/04/07 05:40:19;;;;;;;5.85;5.15;;;5.00;65.70;;;;;;1486711;39;20113;-59
2021/04/07 05:41:40;;;;;;;7.45;5.35;;;5.00;65.70;;;;;;1485388;39;20036;-59
2021/04/07 05:43:04;;;;;;;6.40;5.22;;;4.90;66.20;;;;;;1486988;39;20076;-59
2021/04/07 05:44:25;;;;;;;5.15;4.65;;;5.00;66.30;;;;;;1483916;39;20055;-59
2021/04/07 05:45:46;;;;;;;8.55;5.22;;;4.90;66.50;;;;;;1486680;39;20054;-60
2021/04/07 05:47:07;;;;;;;5.50;4.90;;;4.90;67.10;;;;;;1486965;39;20035;-59
2021/04/07 05:48:28;;;;;;;7.10;5.43;;;4.90;66.70;;;;;;1486964;39;20032;-59
2021/04/07 05:49:49;;;;;;;6.32;5.70;;;4.90;66.80;;;;;;1480479;40;20709;-59
2021/04/07 05:51:10;;;;;;;6.40;5.70;;;4.80;66.60;;;;;;1482535;40;20032;-59
2021/04/07 05:52:31;;;;;;;6.85;5.47;;;4.90;66.90;;;;;;1484067;39;20589;-59
2021/04/07 05:53:52;;;;;;;7.60;5.35;;;4.90;66.90;;;;;;1482420;40;20044;-59
2021/04/07 05:55:13;;;;;;;6.05;5.45;;;4.80;67.00;;;;;;1483355;40;20064;-59
2021/04/07 05:56:34;;;;;;;7.85;5.80;;;4.80;67.00;;;;;;1484496;39;20033;-59
2021/04/07 05:58:00;;;;;;;7.75;6.13;;;4.80;67.10;;;;;;1484444;39;20032;-59
2021/04/07 05:59:21;;;;;;;6.47;5.88;;;4.80;67.80;;;;;;1485292;39;20044;-59
2021/04/07 06:00:43;;;;;;;7.53;6.18;;;4.80;67.70;;;;;;1486800;39;20032;-59
2021/04/07 06:02:04;;;;;;;6.63;5.45;;;4.90;67.80;;;;;;1486407;39;20059;-59
2021/04/07 06:03:25;;;;;;;8.60;6.68;;;4.80;67.80;;;;;;1483359;39;20059;-59
2021/04/07 06:04:46;;;;;;;7.30;6.43;;;4.80;67.90;;;;;;1485350;39;20552;-59
2021/04/07 06:06:10;;;;;;;8.65;6.80;;;4.80;67.70;;;;;;1486319;39;20044;-60
2021/04/07 06:07:31;;;;;;;9.18;6.75;;;4.80;67.90;;;;;;1485952;39;20354;-59
2021/04/07 06:08:52;;;;;;;8.40;6.57;;;4.80;68.70;;;;;;1485548;39;20032;-59
2021/04/07 06:10:14;;;;;;;8.25;6.63;;;4.80;67.80;;;;;;1486777;39;20032;-59
2021/04/07 06:11:34;;;;;;;7.72;6.95;;;4.80;67.70;;;;;;1484158;39;20262;-59
2021/04/07 06:12:59;;;;;;;6.78;6.10;;;4.80;68.00;;;;;;1486472;39;20082;-58
2021/04/07 06:14:20;;;;;;;6.50;5.85;;;4.80;68.20;;;;;;1487428;39;20028;-59
2021/04/07 06:15:42;;;;;;;6.63;5.88;;;4.80;68.00;;;;;;1486758;39;20548;-59
2021/04/07 06:17:03;;;;;;;9.52;6.03;;;4.80;68.10;;;;;;1486735;39;20357;-57
2021/04/07 06:18:24;;;;;;;6.45;5.85;;;4.70;67.60;;;;;;1486839;39;20040;-59
2021/04/07 06:19:45;;;;;;;6.63;5.82;;;4.70;67.90;;;;;;1487305;39;20016;-59
2021/04/07 06:21:06;;;;;;;7.72;6.25;;;4.70;67.80;;;;;;1486792;39;20043;-59
2021/04/07 06:22:26;;;;;;;8.75;6.20;;;4.70;68.10;;;;;;1485162;39;20041;-59
2021/04/07 06:23:47;;;;;;;8.75;5.80;;;4.80;68.30;;;;;;1487219;39;20560;-59
2021/04/07 06:25:08;;;;;;;7.88;5.95;;;4.70;68.30;;;;;;1486444;39;20032;-59
2021/04/07 06:26:29;;;;;;;7.05;5.47;;;4.70;68.30;;;;;;1486737;39;20033;-59
2021/04/07 06:27:58;;;;;;;6.97;5.60;;;4.70;68.30;;;;;;1486762;39;20040;-59
2021/04/07 06:29:19;;;;;;;7.60;5.72;;;4.70;68.70;;;;;;1485177;39;20264;-56
2021/04/07 06:30:46;;;;;;;7.20;5.63;;;4.70;68.50;;;;;;1485283;39;20079;-59
2021/04/07 06:32:07;;;;;;;6.90;5.57;;;4.80;68.50;;;;;;1486455;39;20089;-59
2021/04/07 06:33:31;;;;;;;8.15;5.95;;;4.80;68.50;;;;;;1483795;39;20029;-58
2021/04/07 06:34:52;;;;;;;7.70;6.18;;;4.80;68.50;;;;;;1487006;39;20079;-59
2021/04/07 06:36:12;;;;;;;6.15;5.55;;;4.80;68.40;;;;;;1486542;39;20036;-59
2021/04/07 06:37:33;;;;;;;8.10;6.35;;;4.80;68.30;;;;;;1487015;39;20447;-59
2021/04/07 06:38:54;;;;;;;7.45;5.85;;;4.70;68.50;;;;;;1486806;39;20805;-59
2021/04/07 06:40:16;;;;;;;6.85;6.15;;;4.80;68.80;;;;;;1484573;39;20021;-59
2021/04/07 06:41:37;;;;;;;6.55;5.78;;;4.70;68.60;;;;;;1488282;39;20120;-59
2021/04/07 06:43:01;;;;;;;7.57;4.95;;;4.70;68.60;;;;;;1483602;39;20040;-58
2021/04/07 06:44:23;;;;;;;6.50;5.50;;;4.80;68.70;;;;;;1483386;39;20574;-59
2021/04/07 06:45:48;;;;;;;5.97;5.38;;;4.80;68.60;;;;;;1486416;39;20044;-59
2021/04/07 06:47:11;;;;;;;6.97;6.30;;;4.80;68.50;;;;;;1486952;39;20435;-59
2021/04/07 06:48:32;;;;;;;9.27;5.55;;;4.80;68.60;;;;;;1487384;39;20051;-59
2021/04/07 06:49:54;;;;;;;5.95;5.10;;;4.80;68.60;;;;;;1486611;39;20028;-59
2021/04/07 06:51:19;;;;;;;5.80;5.20;;;4.80;68.60;;;;;;1486858;40;20028;-59
2021/04/07 06:52:43;;;;;;;5.50;4.85;;;4.80;68.90;;;;;;1486287;39;20048;-59
2021/04/07 06:54:05;;;;;;;6.20;5.60;;;4.80;69.00;;;;;;1487217;39;20039;-59
2021/04/07 06:55:27;;;;;;;9.00;5.70;;;4.80;69.10;;;;;;1483764;39;20661;-59
2021/04/07 06:56:49;;;;;;;5.93;5.22;;;4.80;69.20;;;;;;1486484;39;20036;-59
2021/04/07 06:58:11;;;;;;;7.28;5.07;;;4.80;69.50;;;;;;1487073;39;20121;-59
2021/04/07 06:59:36;;;;;;;6.18;4.78;;;4.80;69.10;;;;;;1487037;39;20043;-59
2021/04/07 07:00:57;;;;;;;7.38;5.65;;;4.90;69.20;;;;;;1483622;39;20036;-59
2021/04/07 07:02:17;;;;;;;5.85;5.22;;;4.80;69.10;;;;;;1484965;40;20035;-58
2021/04/07 07:03:38;;;;;;;5.90;4.95;;;4.80;69.00;;;;;;1485935;39;20040;-59
2021/04/07 07:04:59;;;;;;;4.93;4.30;;;4.90;69.10;;;;;;1485795;39;20048;-60
2021/04/07 07:06:20;;;;;;;5.78;4.68;;;4.90;68.90;;;;;;1481798;39;20258;-59
2021/04/07 07:07:41;;;;;;;5.40;4.40;;;4.90;69.00;;;;;;1484335;39;20028;-59
2021/04/07 07:09:17;;;;;;;6.25;5.00;;;4.90;69.20;;;;;;1486557;39;20166;-59
2021/04/07 07:10:41;;;;;;;4.55;4.15;;;4.80;69.00;;;;;;1484146;39;20063;-59